createdAt,value
2022-09-07T00:00:13.153Z,4
2022-09-07T00:01:13.186Z,4
2022-09-07T00:02:13.168Z,4
2022-09-07T00:03:13.331Z,2
2022-09-07T00:04:13.260Z,3
2022-09-07T00:05:13.138Z,2
2022-09-07T00:06:13.203Z,3
2022-09-07T00:07:13.195Z,4
2022-09-07T00:08:13.204Z,3
2022-09-07T00:09:18.215Z,3
2022-09-07T00:10:13.201Z,3
2022-09-07T00:11:13.191Z,3
2022-09-07T00:12:13.242Z,4
2022-09-07T00:13:13.151Z,3
2022-09-07T00:14:13.163Z,3
2022-09-07T00:15:13.171Z,4
2022-09-07T00:16:13.269Z,3
2022-09-07T00:17:13.169Z,4
2022-09-07T00:18:13.172Z,4
2022-09-07T00:19:13.197Z,5
2022-09-07T00:20:13.148Z,4
2022-09-07T00:21:13.197Z,5
2022-09-07T00:22:13.165Z,6
2022-09-07T00:23:13.186Z,4
2022-09-07T00:24:13.189Z,5
2022-09-07T00:25:13.158Z,3
2022-09-07T00:26:13.196Z,2
2022-09-07T00:27:13.471Z,4
2022-09-07T00:28:13.205Z,3
2022-09-07T00:29:13.166Z,4
2022-09-07T00:30:13.161Z,4
2022-09-07T00:31:13.236Z,3
2022-09-07T00:32:13.227Z,2
2022-09-07T00:33:13.164Z,3
2022-09-07T00:34:13.216Z,5
2022-09-07T00:35:13.200Z,2
2022-09-07T00:36:13.193Z,4
2022-09-07T00:37:13.192Z,4
2022-09-07T00:38:13.172Z,5
2022-09-07T00:39:13.158Z,4
2022-09-07T00:40:13.256Z,4
2022-09-07T00:41:13.154Z,5
2022-09-07T00:42:13.261Z,7
2022-09-07T00:43:13.158Z,4
2022-09-07T00:44:13.237Z,5
2022-09-07T00:45:13.150Z,3
2022-09-07T00:46:13.238Z,3
2022-09-07T00:47:13.177Z,4
2022-09-07T00:48:13.164Z,4
2022-09-07T00:49:13.185Z,4
2022-09-07T00:50:13.203Z,2
2022-09-07T00:51:13.186Z,3
2022-09-07T00:52:13.203Z,3
2022-09-07T00:53:13.151Z,2
2022-09-07T00:54:13.165Z,2
2022-09-07T00:55:13.149Z,4
2022-09-07T00:56:13.167Z,2
2022-09-07T00:57:13.213Z,4
2022-09-07T00:58:13.217Z,3
2022-09-07T00:59:13.184Z,2
2022-09-07T01:00:13.189Z,6
2022-09-07T01:01:13.172Z,3
2022-09-07T01:02:13.355Z,3
2022-09-07T01:03:13.157Z,3
2022-09-07T01:04:13.191Z,2
2022-09-07T01:05:13.213Z,3
2022-09-07T01:06:13.227Z,3
2022-09-07T01:07:13.178Z,2
2022-09-07T01:08:13.204Z,2
2022-09-07T01:09:13.179Z,2
2022-09-07T01:10:13.174Z,3
2022-09-07T01:11:13.246Z,3
2022-09-07T01:12:13.210Z,3
2022-09-07T01:13:13.205Z,2
2022-09-07T01:14:13.204Z,3
2022-09-07T01:15:13.164Z,3
2022-09-07T01:16:13.237Z,4
2022-09-07T01:17:13.182Z,4
2022-09-07T01:18:13.164Z,4
2022-09-07T01:19:13.169Z,4
2022-09-07T01:20:13.170Z,4
2022-09-07T01:21:13.250Z,4
2022-09-07T01:22:13.277Z,4
2022-09-07T01:23:13.159Z,3
2022-09-07T01:24:13.153Z,4
2022-09-07T01:25:13.160Z,4
2022-09-07T01:26:13.176Z,3
2022-09-07T01:27:13.178Z,3
2022-09-07T01:28:13.167Z,4
2022-09-07T01:29:13.204Z,4
2022-09-07T01:30:13.169Z,3
2022-09-07T01:31:13.215Z,5
2022-09-07T01:32:13.210Z,5
2022-09-07T01:33:13.173Z,4
2022-09-07T01:34:13.164Z,5
2022-09-07T01:35:13.161Z,4
2022-09-07T01:36:13.246Z,3
2022-09-07T01:37:13.251Z,4
2022-09-07T01:38:13.215Z,4
2022-09-07T01:39:13.199Z,4
2022-09-07T01:40:13.221Z,6
2022-09-07T01:41:13.162Z,5
2022-09-07T01:42:13.190Z,4
2022-09-07T01:43:13.179Z,6
2022-09-07T01:44:13.215Z,6
2022-09-07T01:45:13.206Z,4
2022-09-07T01:46:13.203Z,5
2022-09-07T01:47:13.201Z,4
2022-09-07T01:48:13.180Z,6
2022-09-07T01:49:13.173Z,5
2022-09-07T01:50:13.183Z,4
2022-09-07T01:51:13.188Z,3
2022-09-07T01:52:13.286Z,3
2022-09-07T01:53:13.222Z,4
2022-09-07T01:54:13.170Z,4
2022-09-07T01:55:13.162Z,3
2022-09-07T01:56:13.175Z,3
2022-09-07T01:57:13.184Z,4
2022-09-07T01:58:13.156Z,2
2022-09-07T01:59:13.184Z,4
2022-09-07T02:00:13.223Z,3
2022-09-07T02:01:13.269Z,3
2022-09-07T02:02:13.297Z,3
2022-09-07T02:03:13.210Z,3
2022-09-07T02:04:13.213Z,3
2022-09-07T02:05:13.158Z,3
2022-09-07T02:06:13.195Z,2
2022-09-07T02:07:13.205Z,2
2022-09-07T02:08:13.221Z,2
2022-09-07T02:09:13.174Z,2
2022-09-07T02:10:13.196Z,4
2022-09-07T02:11:13.169Z,2
2022-09-07T02:12:13.194Z,3
2022-09-07T02:13:13.165Z,2
2022-09-07T02:14:13.170Z,5
2022-09-07T02:15:13.220Z,3
2022-09-07T02:16:13.276Z,3
2022-09-07T02:17:13.429Z,4
2022-09-07T02:18:13.172Z,3
2022-09-07T02:19:13.193Z,2
2022-09-07T02:20:13.182Z,3
2022-09-07T02:21:13.195Z,2
2022-09-07T02:22:13.328Z,2
2022-09-07T02:23:13.193Z,3
2022-09-07T02:24:13.214Z,3
2022-09-07T02:25:13.174Z,3
2022-09-07T02:26:13.183Z,2
2022-09-07T02:27:13.233Z,4
2022-09-07T02:28:13.185Z,2
2022-09-07T02:29:13.194Z,3
2022-09-07T02:30:13.189Z,2
2022-09-07T02:31:13.230Z,2
2022-09-07T02:32:13.224Z,3
2022-09-07T02:33:13.185Z,3
2022-09-07T02:34:13.217Z,3
2022-09-07T02:35:13.237Z,3
2022-09-07T02:36:13.220Z,2
2022-09-07T02:37:13.198Z,3
2022-09-07T02:38:13.185Z,3
2022-09-07T02:39:13.239Z,3
2022-09-07T02:40:13.214Z,4
2022-09-07T02:41:13.191Z,3
2022-09-07T02:42:13.196Z,4
2022-09-07T02:43:13.179Z,3
2022-09-07T02:44:13.184Z,3
2022-09-07T02:45:13.184Z,2
2022-09-07T02:46:13.289Z,3
2022-09-07T02:47:13.324Z,2
2022-09-07T02:48:13.209Z,2
2022-09-07T02:49:13.188Z,4
2022-09-07T02:50:13.227Z,3
2022-09-07T02:51:13.239Z,3
2022-09-07T02:52:13.220Z,4
2022-09-07T02:53:13.185Z,3
2022-09-07T02:54:13.223Z,3
2022-09-07T02:55:13.222Z,3
2022-09-07T02:56:13.171Z,2
2022-09-07T02:57:13.213Z,2
2022-09-07T02:58:13.215Z,3
2022-09-07T02:59:13.203Z,4
2022-09-07T03:00:13.235Z,4
2022-09-07T03:01:13.270Z,3
2022-09-07T03:02:13.350Z,4
2022-09-07T03:03:13.284Z,3
2022-09-07T03:04:13.222Z,4
2022-09-07T03:05:13.167Z,6
2022-09-07T03:06:13.239Z,4
2022-09-07T03:07:13.213Z,5
2022-09-07T03:08:13.211Z,4
2022-09-07T03:09:13.176Z,4
2022-09-07T03:10:13.261Z,4
2022-09-07T03:11:13.192Z,3
2022-09-07T03:12:13.288Z,4
2022-09-07T03:13:13.181Z,4
2022-09-07T03:14:13.222Z,5
2022-09-07T03:15:13.204Z,4
2022-09-07T03:16:13.208Z,4
2022-09-07T03:17:13.226Z,3
2022-09-07T03:18:13.225Z,4
2022-09-07T03:19:13.176Z,3
2022-09-07T03:20:13.189Z,5
2022-09-07T03:21:13.185Z,4
2022-09-07T03:22:13.225Z,4
2022-09-07T03:23:13.202Z,3
2022-09-07T03:24:13.178Z,6
2022-09-07T03:25:13.218Z,5
2022-09-07T03:26:13.218Z,4
2022-09-07T03:27:13.205Z,4
2022-09-07T03:28:13.201Z,4
2022-09-07T03:29:13.218Z,4
2022-09-07T03:30:13.179Z,3
2022-09-07T03:31:13.222Z,3
2022-09-07T03:32:13.191Z,4
2022-09-07T03:33:13.234Z,5
2022-09-07T03:34:13.248Z,3
2022-09-07T03:35:14.305Z,4
2022-09-07T03:36:13.227Z,4
2022-09-07T03:37:13.195Z,4
2022-09-07T03:38:13.173Z,4
2022-09-07T03:39:13.187Z,3
2022-09-07T03:40:13.278Z,4
2022-09-07T03:41:13.272Z,4
2022-09-07T03:42:13.242Z,3
2022-09-07T03:44:13.227Z,3
2022-09-07T03:45:13.218Z,4
2022-09-07T03:46:13.238Z,5
2022-09-07T03:47:13.234Z,4
2022-09-07T03:48:13.191Z,3
2022-09-07T03:49:13.232Z,4
2022-09-07T03:50:13.205Z,4
2022-09-07T03:51:13.214Z,3
2022-09-07T03:52:13.208Z,3
2022-09-07T03:53:13.190Z,3
2022-09-07T03:54:13.252Z,3
2022-09-07T03:55:13.191Z,3
2022-09-07T03:56:13.225Z,3
2022-09-07T03:57:13.267Z,5
2022-09-07T03:58:13.194Z,4
2022-09-07T03:59:13.194Z,3
2022-09-07T04:00:13.194Z,3
2022-09-07T04:01:13.326Z,3
2022-09-07T04:02:13.243Z,4
2022-09-07T04:03:13.193Z,4
2022-09-07T04:04:13.239Z,2
2022-09-07T04:05:13.220Z,3
2022-09-07T04:06:13.207Z,2
2022-09-07T04:07:13.196Z,3
2022-09-07T04:08:13.189Z,3
2022-09-07T04:09:13.186Z,3
2022-09-07T04:10:13.246Z,3
2022-09-07T04:11:13.199Z,3
2022-09-07T04:12:13.259Z,3
2022-09-07T04:13:13.230Z,5
2022-09-07T04:14:13.199Z,2
2022-09-07T04:15:13.187Z,3
2022-09-07T04:16:13.240Z,2
2022-09-07T04:17:13.280Z,3
2022-09-07T04:18:13.203Z,4
2022-09-07T04:19:13.206Z,3
2022-09-07T04:20:13.240Z,3
2022-09-07T04:21:13.296Z,4
2022-09-07T04:22:13.267Z,3
2022-09-07T04:23:13.201Z,4
2022-09-07T04:24:13.249Z,3
2022-09-07T04:25:13.190Z,3
2022-09-07T04:26:13.230Z,3
2022-09-07T04:27:13.241Z,2
2022-09-07T04:28:13.246Z,3
2022-09-07T04:29:13.197Z,4
2022-09-07T04:30:13.206Z,3
2022-09-07T04:31:13.261Z,3
2022-09-07T04:32:15.647Z,3
2022-09-07T04:33:13.214Z,3
2022-09-07T04:34:13.190Z,3
2022-09-07T04:35:13.224Z,3
2022-09-07T04:36:13.246Z,3
2022-09-07T04:37:13.258Z,5
2022-09-07T04:38:13.205Z,3
2022-09-07T04:39:13.203Z,2
2022-09-07T04:40:13.278Z,4
2022-09-07T04:41:13.200Z,3
2022-09-07T04:42:13.303Z,3
2022-09-07T04:43:13.296Z,3
2022-09-07T04:44:16.735Z,4
2022-09-07T04:45:13.219Z,3
2022-09-07T04:46:13.243Z,6
2022-09-07T04:47:13.232Z,5
2022-09-07T04:48:13.206Z,4
2022-09-07T04:49:13.254Z,4
2022-09-07T04:50:13.196Z,3
2022-09-07T04:51:13.504Z,3
2022-09-07T04:52:18.847Z,4
2022-09-07T04:53:13.262Z,6
2022-09-07T04:54:13.301Z,4
2022-09-07T04:55:13.338Z,4
2022-09-07T04:56:16.888Z,5
2022-09-07T04:57:13.208Z,4
2022-09-07T04:58:13.209Z,3
2022-09-07T04:59:13.250Z,3
2022-09-07T05:00:13.217Z,4
2022-09-07T05:01:13.262Z,3
2022-09-07T05:02:13.224Z,5
2022-09-07T05:03:13.197Z,3
2022-09-07T05:04:13.219Z,4
2022-09-07T05:05:13.190Z,3
2022-09-07T05:06:13.242Z,4
2022-09-07T05:07:13.248Z,4
2022-09-07T05:08:13.219Z,3
2022-09-07T05:09:13.210Z,6
2022-09-07T05:10:13.198Z,5
2022-09-07T05:11:13.224Z,4
2022-09-07T05:12:13.203Z,5
2022-09-07T05:13:13.200Z,3
2022-09-07T05:14:13.267Z,4
2022-09-07T05:15:13.240Z,6
2022-09-07T05:16:13.300Z,6
2022-09-07T05:17:13.206Z,5
2022-09-07T05:18:13.202Z,5
2022-09-07T05:19:13.219Z,5
2022-09-07T05:20:16.295Z,6
2022-09-07T05:21:13.212Z,10
2022-09-07T05:22:13.280Z,8
2022-09-07T05:23:13.242Z,5
2022-09-07T05:24:13.193Z,3
2022-09-07T05:25:13.203Z,6
2022-09-07T05:26:13.223Z,4
2022-09-07T05:27:13.201Z,5
2022-09-07T05:28:18.597Z,5
2022-09-07T05:32:13.209Z,5
2022-09-07T05:33:13.233Z,6
2022-09-07T05:35:13.202Z,5
2022-09-07T05:36:13.196Z,6
2022-09-07T05:37:13.268Z,22
2022-09-07T05:38:13.242Z,18
2022-09-07T05:39:13.226Z,27
2022-09-07T05:40:13.249Z,25
2022-09-07T05:41:13.224Z,49
2022-09-07T05:42:13.213Z,28
2022-09-07T05:43:13.229Z,17
2022-09-07T05:45:13.253Z,4
2022-09-07T05:46:13.320Z,5
2022-09-07T05:47:13.376Z,5
2022-09-07T05:48:13.241Z,3
2022-09-07T05:49:13.225Z,4
2022-09-07T05:50:13.212Z,5
2022-09-07T05:51:13.210Z,2
2022-09-07T05:52:13.220Z,3
2022-09-07T05:53:13.253Z,8
2022-09-07T05:54:13.251Z,4
2022-09-07T05:55:29.322Z,4
2022-09-07T05:56:13.221Z,3
2022-09-07T05:57:13.220Z,3
2022-09-07T05:58:13.214Z,4
2022-09-07T05:59:13.241Z,3
2022-09-07T06:00:13.209Z,3
2022-09-07T06:01:13.265Z,4
2022-09-07T06:02:13.342Z,4
2022-09-07T06:03:13.400Z,3
2022-09-07T06:04:13.244Z,6
2022-09-07T06:05:13.217Z,5
2022-09-07T06:06:13.218Z,2
2022-09-07T06:07:22.525Z,4
2022-09-07T06:08:13.216Z,3
2022-09-07T06:09:13.283Z,4
2022-09-07T06:11:13.247Z,4
2022-09-07T06:12:13.219Z,4
2022-09-07T06:13:13.296Z,5
2022-09-07T06:14:13.219Z,4
2022-09-07T06:15:13.225Z,4
2022-09-07T06:16:13.307Z,5
2022-09-07T06:17:13.268Z,4
2022-09-07T06:18:13.220Z,4
2022-09-07T06:19:13.230Z,4
2022-09-07T06:20:13.226Z,4
2022-09-07T06:21:13.219Z,4
2022-09-07T06:22:13.228Z,4
2022-09-07T06:23:13.220Z,4
2022-09-07T06:24:13.292Z,4
2022-09-07T06:25:13.256Z,3
2022-09-07T06:26:13.252Z,3
2022-09-07T06:27:13.396Z,5
2022-09-07T06:28:13.219Z,5
2022-09-07T06:29:13.219Z,3
2022-09-07T06:30:13.251Z,3
2022-09-07T06:31:13.259Z,4
2022-09-07T06:33:13.817Z,4
2022-09-07T06:34:13.221Z,4
2022-09-07T06:35:13.216Z,5
2022-09-07T06:36:13.234Z,4
2022-09-07T06:37:13.237Z,5
2022-09-07T06:38:13.210Z,5
2022-09-07T06:39:13.230Z,5
2022-09-07T06:40:13.393Z,4
2022-09-07T06:42:13.223Z,5
2022-09-07T06:43:13.235Z,4
2022-09-07T06:44:13.218Z,4
2022-09-07T06:45:13.210Z,5
2022-09-07T06:47:13.236Z,3
2022-09-07T06:48:13.280Z,5
2022-09-07T06:49:13.246Z,6
2022-09-07T06:50:13.230Z,4
2022-09-07T06:51:13.231Z,5
2022-09-07T06:52:13.242Z,4
2022-09-07T06:55:13.295Z,5
2022-09-07T06:56:13.273Z,5
2022-09-07T06:57:13.240Z,5
2022-09-07T06:58:13.261Z,5
2022-09-07T06:59:13.240Z,5
2022-09-07T07:00:13.226Z,4
2022-09-07T07:01:13.243Z,4
2022-09-07T07:02:13.218Z,4
2022-09-07T07:03:13.325Z,5
2022-09-07T07:04:13.267Z,6
2022-09-07T07:05:13.226Z,4
2022-09-07T07:06:13.229Z,4
2022-09-07T07:07:13.252Z,5
2022-09-07T07:08:13.234Z,8
2022-09-07T07:09:13.240Z,4
2022-09-07T07:10:13.234Z,5
2022-09-07T07:11:13.273Z,4
2022-09-07T07:12:13.261Z,5
2022-09-07T07:14:13.251Z,4
2022-09-07T07:15:13.246Z,6
2022-09-07T07:16:13.294Z,4
2022-09-07T07:17:13.240Z,4
2022-09-07T07:18:20.969Z,6
2022-09-07T07:19:13.279Z,5
2022-09-07T07:20:13.240Z,4
2022-09-07T07:21:13.238Z,5
2022-09-07T07:23:13.252Z,5
2022-09-07T07:24:13.232Z,5
2022-09-07T07:25:13.231Z,6
2022-09-07T07:26:13.286Z,7
2022-09-07T07:27:13.271Z,4
2022-09-07T07:29:15.855Z,5
2022-09-07T07:30:13.243Z,4
2022-09-07T07:31:13.434Z,4
2022-09-07T07:32:13.241Z,5
2022-09-07T07:33:13.250Z,6
2022-09-07T07:34:13.375Z,5
2022-09-07T07:35:13.274Z,5
2022-09-07T07:36:13.233Z,4
2022-09-07T07:37:13.281Z,4
2022-09-07T07:42:13.280Z,5
2022-09-07T07:43:13.269Z,5
2022-09-07T07:44:13.234Z,4
2022-09-07T07:46:13.305Z,5
2022-09-07T07:47:13.245Z,5
2022-09-07T07:48:13.231Z,5
2022-09-07T07:49:13.234Z,5
2022-09-07T07:50:41.658Z,6
2022-09-07T07:51:13.246Z,6
2022-09-07T07:53:43.021Z,3
2022-09-07T07:54:13.256Z,6
2022-09-07T07:56:13.258Z,5
2022-09-07T07:57:13.287Z,5
2022-09-07T07:58:13.283Z,4
2022-09-07T07:59:15.823Z,4
2022-09-07T08:00:13.405Z,5
2022-09-07T08:01:13.480Z,5
2022-09-07T08:02:13.526Z,5
2022-09-07T08:03:13.402Z,4
2022-09-07T08:04:13.248Z,4
2022-09-07T08:05:13.335Z,4
2022-09-07T08:06:13.288Z,3
2022-09-07T08:07:13.274Z,5
2022-09-07T08:08:13.265Z,4
2022-09-07T08:09:13.250Z,4
2022-09-07T08:10:13.248Z,4
2022-09-07T08:11:13.236Z,4
2022-09-07T08:12:13.244Z,4
2022-09-07T08:13:13.302Z,5
2022-09-07T08:14:13.287Z,4
2022-09-07T08:15:13.239Z,4
2022-09-07T08:16:13.268Z,5
2022-09-07T08:17:13.262Z,6
2022-09-07T08:18:13.271Z,4
2022-09-07T08:19:13.275Z,5
2022-09-07T08:20:13.238Z,5
2022-09-07T08:21:13.298Z,4
2022-09-07T08:22:13.314Z,4
2022-09-07T08:23:13.235Z,6
2022-09-07T08:24:13.240Z,4
2022-09-07T08:25:13.241Z,4
2022-09-07T08:26:13.250Z,5
2022-09-07T08:27:13.252Z,6
2022-09-07T08:28:13.245Z,5
2022-09-07T08:29:13.299Z,3
2022-09-07T08:30:13.243Z,3
2022-09-07T08:31:13.286Z,4
2022-09-07T08:32:13.263Z,3
2022-09-07T08:33:13.250Z,4
2022-09-07T08:34:13.263Z,4
2022-09-07T08:35:13.248Z,2
2022-09-07T08:36:13.303Z,4
2022-09-07T08:37:13.314Z,3
2022-09-07T08:38:13.290Z,4
2022-09-07T08:39:13.258Z,4
2022-09-07T08:40:13.323Z,3
2022-09-07T08:41:13.248Z,3
2022-09-07T08:42:13.254Z,6
2022-09-07T08:43:13.246Z,6
2022-09-07T08:44:13.305Z,3
2022-09-07T08:45:13.284Z,3
2022-09-07T08:46:13.308Z,3
2022-09-07T08:47:13.280Z,3
2022-09-07T08:48:13.254Z,3
2022-09-07T08:49:13.258Z,3
2022-09-07T08:50:13.254Z,2
2022-09-07T08:51:13.284Z,4
2022-09-07T08:52:13.322Z,3
2022-09-07T08:53:13.286Z,5
2022-09-07T08:54:13.271Z,4
2022-09-07T08:55:13.248Z,5
2022-09-07T08:56:13.259Z,4
2022-09-07T08:57:20.845Z,4
2022-09-07T08:58:26.971Z,5
2022-09-07T08:59:13.259Z,6
2022-09-07T09:00:13.315Z,3
2022-09-07T09:02:31.625Z,2
2022-09-07T09:03:29.881Z,3
2022-09-07T09:04:17.640Z,4
2022-09-07T09:05:17.834Z,7
2022-09-07T09:06:13.449Z,3
2022-09-07T09:07:13.341Z,2
2022-09-07T09:08:13.312Z,4
2022-09-07T09:09:13.257Z,3
2022-09-07T09:10:13.293Z,3
2022-09-07T09:11:13.267Z,3
2022-09-07T09:12:13.306Z,6
2022-09-07T09:13:13.259Z,5
2022-09-07T09:14:13.272Z,4
2022-09-07T09:15:13.292Z,3
2022-09-07T09:16:13.370Z,6
2022-09-07T09:17:13.268Z,6
2022-09-07T09:18:14.482Z,5
2022-09-07T09:19:13.277Z,5
2022-09-07T09:20:13.263Z,4
2022-09-07T09:21:13.250Z,4
2022-09-07T09:22:13.339Z,4
2022-09-07T09:23:13.312Z,3
2022-09-07T09:24:13.289Z,2
2022-09-07T09:25:13.272Z,3
2022-09-07T09:26:13.263Z,2
2022-09-07T09:27:13.271Z,2
2022-09-07T09:28:13.258Z,3
2022-09-07T09:29:13.255Z,5
2022-09-07T09:30:13.256Z,4
2022-09-07T09:31:13.338Z,4
2022-09-07T09:32:13.313Z,3
2022-09-07T09:33:13.261Z,5
2022-09-07T09:34:13.255Z,4
2022-09-07T09:35:13.262Z,2
2022-09-07T09:36:13.257Z,4
2022-09-07T09:37:13.294Z,5
2022-09-07T09:38:13.294Z,5
2022-09-07T09:39:13.309Z,4
2022-09-07T09:40:13.313Z,3
2022-09-07T09:41:13.266Z,6
2022-09-07T09:42:13.271Z,3
2022-09-07T09:43:13.261Z,5
2022-09-07T09:44:13.267Z,4
2022-09-07T09:45:13.258Z,4
2022-09-07T09:46:13.503Z,2
2022-09-07T09:47:41.456Z,4
2022-09-07T09:48:13.277Z,3
2022-09-07T09:49:13.266Z,4
2022-09-07T09:50:13.587Z,4
2022-09-07T09:52:31.073Z,4
2022-09-07T09:53:13.276Z,3
2022-09-07T09:54:13.314Z,3
2022-09-07T09:55:36.757Z,5
2022-09-07T09:56:13.262Z,5
2022-09-07T09:57:13.268Z,4
2022-09-07T10:00:21.362Z,4
2022-09-07T10:01:29.312Z,4
2022-09-07T10:04:16.563Z,3
2022-09-07T10:05:13.293Z,3
2022-09-07T10:06:13.294Z,3
2022-09-07T10:07:13.288Z,5
2022-09-07T10:08:13.335Z,3
2022-09-07T10:09:13.299Z,4
2022-09-07T10:10:13.316Z,6
2022-09-07T10:11:13.322Z,3
2022-09-07T10:12:13.272Z,4
2022-09-07T10:13:13.268Z,6
2022-09-07T10:14:13.268Z,5
2022-09-07T10:15:13.269Z,4
2022-09-07T10:16:13.351Z,2
2022-09-07T10:17:13.290Z,2
2022-09-07T10:18:13.330Z,3
2022-09-07T10:19:13.347Z,3
2022-09-07T10:20:13.270Z,3
2022-09-07T10:21:13.278Z,3
2022-09-07T10:22:13.320Z,3
2022-09-07T10:23:13.265Z,4
2022-09-07T10:24:13.285Z,3
2022-09-07T10:25:13.281Z,2
2022-09-07T10:26:13.318Z,3
2022-09-07T10:27:13.280Z,5
2022-09-07T10:28:13.330Z,5
2022-09-07T10:29:13.893Z,3
2022-09-07T10:30:13.283Z,4
2022-09-07T10:31:15.428Z,4
2022-09-07T10:32:13.272Z,3
2022-09-07T10:33:13.646Z,4
2022-09-07T10:34:28.687Z,3
2022-09-07T10:35:14.691Z,2
2022-09-07T10:36:13.268Z,4
2022-09-07T10:37:13.308Z,2
2022-09-07T10:38:13.279Z,3
2022-09-07T10:39:13.291Z,3
2022-09-07T10:40:13.408Z,4
2022-09-07T10:41:13.330Z,2
2022-09-07T10:42:13.350Z,3
2022-09-07T10:43:21.093Z,3
2022-09-07T10:44:13.273Z,3
2022-09-07T10:45:13.280Z,4
2022-09-07T10:46:13.861Z,3
2022-09-07T10:47:13.294Z,3
2022-09-07T10:48:13.282Z,3
2022-09-07T10:49:13.332Z,4
2022-09-07T10:50:28.699Z,4
2022-09-07T10:51:14.444Z,2
2022-09-07T10:52:13.298Z,2
2022-09-07T10:53:39.102Z,3
2022-09-07T10:54:37.115Z,3
2022-09-07T10:55:13.277Z,5
2022-09-07T10:56:13.283Z,2
2022-09-07T10:57:13.344Z,2
2022-09-07T10:58:13.282Z,3
2022-09-07T10:59:13.245Z,3
2022-09-07T11:00:13.416Z,2
2022-09-07T11:01:13.326Z,3
2022-09-07T11:02:21.140Z,4
2022-09-07T11:03:44.917Z,2
2022-09-07T11:04:13.367Z,3
2022-09-07T11:05:13.324Z,3
2022-09-07T11:06:13.282Z,2
2022-09-07T11:07:15.595Z,6
2022-09-07T11:08:13.344Z,3
2022-09-07T11:09:17.497Z,4
2022-09-07T11:10:13.317Z,3
2022-09-07T11:11:13.322Z,2
2022-09-07T11:12:13.331Z,5
2022-09-07T11:13:13.336Z,2
2022-09-07T11:14:13.866Z,3
2022-09-07T11:15:13.274Z,2
2022-09-07T11:16:50.432Z,3
2022-09-07T11:17:13.290Z,3
2022-09-07T11:18:13.299Z,2
2022-09-07T11:19:38.342Z,4
2022-09-07T11:20:13.342Z,2
2022-09-07T11:21:13.506Z,4
2022-09-07T11:22:13.312Z,3
2022-09-07T11:23:13.280Z,2
2022-09-07T11:24:13.293Z,3
2022-09-07T11:25:41.316Z,2
2022-09-07T11:26:13.280Z,3
2022-09-07T11:27:13.282Z,3
2022-09-07T11:28:13.341Z,3
2022-09-07T11:29:29.360Z,3
2022-09-07T11:30:13.284Z,5
2022-09-07T11:31:13.388Z,5
2022-09-07T11:32:13.285Z,2
2022-09-07T11:33:13.288Z,2
2022-09-07T11:34:28.556Z,4
2022-09-07T11:35:13.299Z,2
2022-09-07T11:36:13.373Z,3
2022-09-07T11:37:13.428Z,2
2022-09-07T11:38:13.286Z,2
2022-09-07T11:39:13.304Z,2
2022-09-07T11:40:13.327Z,2
2022-09-07T11:41:13.295Z,3
2022-09-07T11:43:13.333Z,2
2022-09-07T11:44:13.340Z,2
2022-09-07T11:45:13.280Z,3
2022-09-07T11:46:13.370Z,4
2022-09-07T11:47:13.286Z,4
2022-09-07T11:48:13.295Z,2
2022-09-07T11:49:13.296Z,3
2022-09-07T11:50:13.297Z,2
2022-09-07T11:51:13.328Z,6
2022-09-07T11:52:13.355Z,3
2022-09-07T11:53:13.289Z,4
2022-09-07T11:54:13.300Z,2
2022-09-07T11:55:13.307Z,3
2022-09-07T11:56:13.286Z,3
2022-09-07T11:57:13.308Z,2
2022-09-07T11:58:13.300Z,2
2022-09-07T11:59:13.352Z,3
2022-09-07T12:00:13.346Z,3
2022-09-07T12:01:13.298Z,3
2022-09-07T12:02:13.353Z,4
2022-09-07T12:03:13.339Z,4
2022-09-07T12:04:15.557Z,2
2022-09-07T12:05:13.300Z,3
2022-09-07T12:06:13.305Z,3
2022-09-07T12:07:13.372Z,4
2022-09-07T12:08:13.293Z,3
2022-09-07T12:09:13.303Z,4
2022-09-07T12:10:13.300Z,2
2022-09-07T12:11:13.306Z,3
2022-09-07T12:12:13.304Z,3
2022-09-07T12:13:13.335Z,4
2022-09-07T12:14:13.329Z,3
2022-09-07T12:15:13.342Z,3
2022-09-07T12:16:13.365Z,3
2022-09-07T12:17:13.312Z,4
2022-09-07T12:18:13.305Z,4
2022-09-07T12:19:13.315Z,4
2022-09-07T12:20:13.310Z,3
2022-09-07T12:21:13.291Z,2
2022-09-07T12:22:13.351Z,2
2022-09-07T12:23:13.340Z,3
2022-09-07T12:24:13.305Z,2
2022-09-07T12:25:13.306Z,3
2022-09-07T12:26:13.304Z,2
2022-09-07T12:27:13.309Z,3
2022-09-07T12:28:13.303Z,2
2022-09-07T12:29:13.326Z,2
2022-09-07T12:30:13.364Z,3
2022-09-07T12:31:13.368Z,2
2022-09-07T12:33:13.318Z,3
2022-09-07T12:34:13.303Z,3
2022-09-07T12:35:13.315Z,3
2022-09-07T12:36:13.302Z,2
2022-09-07T12:37:13.325Z,2
2022-09-07T12:38:13.376Z,4
2022-09-07T12:39:13.348Z,4
2022-09-07T12:40:13.351Z,3
2022-09-07T12:41:13.312Z,3
2022-09-07T12:42:41.976Z,3
2022-09-07T12:43:13.321Z,3
2022-09-07T12:44:13.328Z,3
2022-09-07T12:45:13.308Z,2
2022-09-07T12:46:13.428Z,2
2022-09-07T12:47:13.302Z,3
2022-09-07T12:48:13.307Z,3
2022-09-07T12:49:13.326Z,3
2022-09-07T12:50:13.333Z,3
2022-09-07T12:51:13.660Z,2
2022-09-07T12:52:15.603Z,3
2022-09-07T12:53:13.393Z,2
2022-09-07T12:54:13.379Z,3
2022-09-07T12:55:29.707Z,3
2022-09-07T12:56:17.079Z,3
2022-09-07T12:57:29.390Z,4
2022-09-07T12:58:13.311Z,3
2022-09-07T12:59:19.596Z,4
2022-09-07T13:00:13.324Z,5
2022-09-07T13:01:13.437Z,2
2022-09-07T13:02:13.481Z,2
2022-09-07T13:04:13.336Z,5
2022-09-07T13:05:13.315Z,2
2022-09-07T13:06:13.312Z,2
2022-09-07T13:07:13.337Z,2
2022-09-07T13:08:13.308Z,1
2022-09-07T13:09:13.373Z,2
2022-09-07T13:10:13.360Z,5
2022-09-07T13:11:13.313Z,3
2022-09-07T13:12:52.930Z,3
2022-09-07T13:13:13.368Z,5
2022-09-07T13:14:13.760Z,3
2022-09-07T13:15:22.983Z,3
2022-09-07T13:16:13.445Z,4
2022-09-07T13:17:16.735Z,2
2022-09-07T13:18:13.319Z,3
2022-09-07T13:19:13.311Z,3
2022-09-07T13:20:13.313Z,3
2022-09-07T13:21:13.293Z,2
2022-09-07T13:22:13.434Z,3
2022-09-07T13:23:13.390Z,3
2022-09-07T13:25:13.399Z,3
2022-09-07T13:26:13.521Z,3
2022-09-07T13:27:13.455Z,3
2022-09-07T13:28:13.498Z,5
2022-09-07T13:29:13.873Z,3
2022-09-07T13:30:13.549Z,3
2022-09-07T13:31:13.660Z,2
2022-09-07T13:32:13.594Z,4
2022-09-07T13:33:13.619Z,4
2022-09-07T13:34:13.541Z,3
2022-09-07T13:35:13.619Z,4
2022-09-07T13:36:13.627Z,3
2022-09-07T13:37:13.662Z,3
2022-09-07T13:38:13.329Z,4
2022-09-07T13:39:13.328Z,3
2022-09-07T13:40:13.751Z,3
2022-09-07T13:41:13.371Z,3
2022-09-07T13:42:13.343Z,3
2022-09-07T13:43:13.322Z,2
2022-09-07T13:44:13.327Z,3
2022-09-07T13:45:13.369Z,3
2022-09-07T13:46:13.500Z,4
2022-09-07T13:47:13.327Z,2
2022-09-07T13:48:13.375Z,4
2022-09-07T13:49:13.374Z,4
2022-09-07T13:50:13.332Z,3
2022-09-07T13:51:13.329Z,6
2022-09-07T13:52:13.379Z,3
2022-09-07T13:53:13.327Z,3
2022-09-07T13:54:13.339Z,4
2022-09-07T13:55:13.343Z,4
2022-09-07T13:56:13.370Z,4
2022-09-07T13:57:13.343Z,3
2022-09-07T13:58:13.340Z,2
2022-09-07T13:59:13.332Z,4
2022-09-07T14:00:13.402Z,3
2022-09-07T14:01:13.410Z,3
2022-09-07T14:02:13.403Z,4
2022-09-07T14:03:13.399Z,3
2022-09-07T14:04:13.383Z,3
2022-09-07T14:05:13.331Z,3
2022-09-07T14:06:13.365Z,3
2022-09-07T14:07:13.352Z,4
2022-09-07T14:08:13.340Z,2
2022-09-07T14:09:13.347Z,5
2022-09-07T14:10:13.353Z,3
2022-09-07T14:11:13.385Z,7
2022-09-07T14:12:13.376Z,3
2022-09-07T14:13:13.345Z,2
2022-09-07T14:14:13.333Z,3
2022-09-07T14:15:13.346Z,4
2022-09-07T14:16:13.385Z,2
2022-09-07T14:17:13.385Z,3
2022-09-07T14:18:13.332Z,6
2022-09-07T14:19:13.395Z,4
2022-09-07T14:20:13.377Z,3
2022-09-07T14:21:13.341Z,2
2022-09-07T14:22:13.351Z,3
2022-09-07T14:23:13.350Z,2
2022-09-07T14:24:13.347Z,7
2022-09-07T14:25:13.333Z,3
2022-09-07T14:26:17.539Z,2
2022-09-07T14:27:13.399Z,2
2022-09-07T14:28:13.349Z,2
2022-09-07T14:29:13.342Z,3
2022-09-07T14:30:13.352Z,2
2022-09-07T14:31:13.395Z,1
2022-09-07T14:32:13.343Z,2
2022-09-07T14:33:13.359Z,3
2022-09-07T14:34:13.782Z,1
2022-09-07T14:35:13.391Z,3
2022-09-07T14:36:37.327Z,3
2022-09-07T14:37:13.377Z,4
2022-09-07T14:38:13.672Z,2
2022-09-07T14:39:13.354Z,2
2022-09-07T14:40:13.412Z,4
2022-09-07T14:41:13.340Z,2
2022-09-07T14:42:13.391Z,3
2022-09-07T14:43:13.395Z,2
2022-09-07T14:44:13.357Z,3
2022-09-07T14:45:13.382Z,2
2022-09-07T14:46:13.391Z,2
2022-09-07T14:47:13.338Z,3
2022-09-07T14:48:13.510Z,3
2022-09-07T14:49:13.341Z,2
2022-09-07T14:50:15.453Z,4
2022-09-07T14:51:30.442Z,4
2022-09-07T14:52:13.359Z,2
2022-09-07T14:53:39.660Z,3
2022-09-07T14:54:13.364Z,3
2022-09-07T14:55:13.355Z,3
2022-09-07T14:56:13.348Z,4
2022-09-07T14:57:13.354Z,3
2022-09-07T14:58:13.401Z,4
2022-09-07T14:59:13.398Z,3
2022-09-07T15:00:13.354Z,3
2022-09-07T15:01:38.334Z,3
2022-09-07T15:02:13.394Z,3
2022-09-07T15:03:13.351Z,3
2022-09-07T15:04:13.362Z,2
2022-09-07T15:05:13.353Z,5
2022-09-07T15:07:01.035Z,2
2022-09-07T15:07:13.362Z,4
2022-09-07T15:08:13.349Z,3
2022-09-07T15:09:13.356Z,2
2022-09-07T15:10:13.341Z,2
2022-09-07T15:11:41.336Z,3
2022-09-07T15:12:13.354Z,3
2022-09-07T15:13:13.389Z,2
2022-09-07T15:14:13.415Z,2
2022-09-07T15:15:13.404Z,5
2022-09-07T15:16:13.494Z,6
2022-09-07T15:18:13.396Z,2
2022-09-07T15:19:13.378Z,4
2022-09-07T15:20:13.365Z,1